sensor_id;sensor_type;location;lat;lon;timestamp;P1;durP1;ratioP1;P2;durP2;ratioP2
5217;SDS011;26539;51.064;6.346;2022-09-09T03:14:55;3.80;;;1.43;;
5217;SDS011;26539;51.064;6.346;2022-09-09T04:12:35;3.83;;;1.43;;
5217;SDS011;26539;51.064;6.346;2022-09-09T05:41:44;3.90;;;1.60;;
5217;SDS011;26539;51.064;6.346;2022-09-09T11:45:27;1.40;;;0.73;;
5217;SDS011;26539;51.064;6.346;2022-09-09T11:52:12;4.03;;;1.00;;
5217;SDS011;26539;51.064;6.346;2022-09-09T12:05:42;3.40;;;1.20;;
5217;SDS011;26539;51.064;6.346;2022-09-09T12:08:36;3.17;;;0.93;;
5217;SDS011;26539;51.064;6.346;2022-09-09T12:11:47;6.13;;;1.00;;
5217;SDS011;26539;51.064;6.346;2022-09-09T12:17:52;4.10;;;1.17;;
5217;SDS011;26539;51.064;6.346;2022-09-09T12:21:01;4.67;;;1.27;;
5217;SDS011;26539;51.064;6.346;2022-09-09T12:27:06;6.40;;;1.70;;
5217;SDS011;26539;51.064;6.346;2022-09-09T12:40:55;3.07;;;1.27;;
5217;SDS011;26539;51.064;6.346;2022-09-09T13:05:05;3.13;;;1.10;;
5217;SDS011;26539;51.064;6.346;2022-09-09T13:08:17;2.27;;;0.93;;
5217;SDS011;26539;51.064;6.346;2022-09-09T13:49:29;3.37;;;1.30;;
5217;SDS011;26539;51.064;6.346;2022-09-09T14:02:40;1.17;;;0.50;;
5217;SDS011;26539;51.064;6.346;2022-09-09T14:06:04;1.50;;;0.60;;
5217;SDS011;26539;51.064;6.346;2022-09-09T14:08:57;1.20;;;0.60;;
5217;SDS011;26539;51.064;6.346;2022-09-09T14:16:03;4.27;;;1.00;;
5217;SDS011;26539;51.064;6.346;2022-09-09T14:19:15;4.30;;;1.10;;
5217;SDS011;26539;51.064;6.346;2022-09-09T14:21:40;3.97;;;1.23;;
5217;SDS011;26539;51.064;6.346;2022-09-09T14:35:20;2.07;;;0.70;;
5217;SDS011;26539;51.064;6.346;2022-09-09T14:41:56;1.63;;;0.70;;
5217;SDS011;26539;51.064;6.346;2022-09-09T14:47:56;1.50;;;0.60;;
5217;SDS011;26539;51.064;6.346;2022-09-09T14:54:12;2.70;;;0.90;;
5217;SDS011;26539;51.064;6.346;2022-09-09T15:10:36;2.97;;;1.40;;
5217;SDS011;26539;51.064;6.346;2022-09-09T16:44:57;8.73;;;1.43;;
5217;SDS011;26539;51.064;6.346;2022-09-09T16:47:33;2.60;;;1.40;;
5217;SDS011;26539;51.064;6.346;2022-09-09T17:07:33;6.13;;;1.53;;
5217;SDS011;26539;51.064;6.346;2022-09-09T18:10:53;2.57;;;1.30;;
5217;SDS011;26539;51.064;6.346;2022-09-09T18:16:05;3.67;;;1.70;;
5217;SDS011;26539;51.064;6.346;2022-09-09T19:25:47;2.50;;;1.50;;
5217;SDS011;26539;51.064;6.346;2022-09-09T19:28:44;3.17;;;2.03;;
5217;SDS011;26539;51.064;6.346;2022-09-09T19:31:24;2.70;;;1.50;;
5217;SDS011;26539;51.064;6.346;2022-09-09T19:34:24;2.10;;;1.70;;
5217;SDS011;26539;51.064;6.346;2022-09-09T19:37:35;4.33;;;1.97;;
5217;SDS011;26539;51.064;6.346;2022-09-09T19:40:19;4.77;;;2.17;;
5217;SDS011;26539;51.064;6.346;2022-09-09T19:46:24;4.90;;;1.97;;
5217;SDS011;26539;51.064;6.346;2022-09-09T19:51:52;4.50;;;1.67;;
5217;SDS011;26539;51.064;6.346;2022-09-09T19:54:41;6.53;;;2.43;;
5217;SDS011;26539;51.064;6.346;2022-09-09T19:57:22;8.43;;;1.90;;
5217;SDS011;26539;51.064;6.346;2022-09-09T20:00:20;5.40;;;2.10;;
5217;SDS011;26539;51.064;6.346;2022-09-09T20:06:03;3.40;;;1.70;;
5217;SDS011;26539;51.064;6.346;2022-09-09T20:09:01;4.43;;;1.90;;
5217;SDS011;26539;51.064;6.346;2022-09-09T20:12:03;5.93;;;2.10;;
5217;SDS011;26539;51.064;6.346;2022-09-09T20:15:11;3.07;;;1.70;;
5217;SDS011;26539;51.064;6.346;2022-09-09T20:26:15;7.17;;;1.70;;
5217;SDS011;26539;51.064;6.346;2022-09-09T20:29:11;6.90;;;1.80;;
5217;SDS011;26539;51.064;6.346;2022-09-09T20:32:41;7.00;;;3.00;;
5217;SDS011;26539;51.064;6.346;2022-09-09T20:35:29;2.97;;;1.70;;
5217;SDS011;26539;51.064;6.346;2022-09-09T20:38:21;4.83;;;1.30;;
5217;SDS011;26539;51.064;6.346;2022-09-09T20:41:34;4.77;;;2.10;;
5217;SDS011;26539;51.064;6.346;2022-09-09T20:44:18;6.30;;;2.13;;
5217;SDS011;26539;51.064;6.346;2022-09-09T20:46:57;3.40;;;1.90;;
5217;SDS011;26539;51.064;6.346;2022-09-09T20:53:13;4.57;;;2.23;;
